sensor_id;sensor_type;location;lat;lon;timestamp;pressure;altitude;pressure_sealevel;temperature;humidity
15670;BME280;18524;45.190;5.732;2023-09-19T00:02:28;99241.06;;;18.81;100.00
15670;BME280;18524;45.190;5.732;2023-09-19T00:07:19;99236.75;;;18.80;100.00
15670;BME280;18524;45.190;5.732;2023-09-19T00:12:11;99241.06;;;18.81;100.00
15670;BME280;18524;45.190;5.732;2023-09-19T00:17:03;99257.75;;;18.67;100.00
15670;BME280;18524;45.190;5.732;2023-09-19T00:21:58;99253.94;;;18.61;100.00
15670;BME280;18524;45.190;5.732;2023-09-19T00:26:48;99253.09;;;18.61;100.00
15670;BME280;18524;45.190;5.732;2023-09-19T00:31:39;99250.75;;;18.58;100.00
15670;BME280;18524;45.190;5.732;2023-09-19T00:36:29;99252.63;;;18.65;100.00
15670;BME280;18524;45.190;5.732;2023-09-19T00:41:20;99245.47;;;18.66;100.00
15670;BME280;18524;45.190;5.732;2023-09-19T00:46:11;99251.78;;;18.65;100.00
15670;BME280;18524;45.190;5.732;2023-09-19T00:51:02;99256.09;;;18.66;100.00
15670;BME280;18524;45.190;5.732;2023-09-19T00:55:55;99252.91;;;18.70;100.00
15670;BME280;18524;45.190;5.732;2023-09-19T01:00:49;99250.31;;;18.62;100.00
15670;BME280;18524;45.190;5.732;2023-09-19T01:05:40;99251.63;;;18.66;100.00
15670;BME280;18524;45.190;5.732;2023-09-19T01:10:30;99239.16;;;18.67;100.00
15670;BME280;18524;45.190;5.732;2023-09-19T01:15:38;99245.47;;;18.66;100.00
15670;BME280;18524;45.190;5.732;2023-09-19T01:20:50;99232.50;;;18.71;100.00
15670;BME280;18524;45.190;5.732;2023-09-19T01:30:56;99247.44;;;18.56;100.00
15670;BME280;18524;45.190;5.732;2023-09-19T01:35:49;99237.34;;;18.51;100.00
15670;BME280;18524;45.190;5.732;2023-09-19T01:40:51;99243.81;;;18.49;100.00
15670;BME280;18524;45.190;5.732;2023-09-19T01:45:53;99248.66;;;18.45;100.00
15670;BME280;18524;45.190;5.732;2023-09-19T01:51:10;99246.19;;;18.43;100.00
15670;BME280;18524;45.190;5.732;2023-09-19T01:56:05;99238.81;;;18.54;100.00
15670;BME280;18524;45.190;5.732;2023-09-19T02:01:00;99230.41;;;18.42;100.00
15670;BME280;18524;45.190;5.732;2023-09-19T02:05:51;99224.75;;;18.45;100.00
15670;BME280;18524;45.190;5.732;2023-09-19T02:10:43;99233.19;;;18.49;100.00
15670;BME280;18524;45.190;5.732;2023-09-19T02:15:36;99240.81;;;18.52;100.00
15670;BME280;18524;45.190;5.732;2023-09-19T02:20:28;99240.88;;;18.43;100.00
15670;BME280;18524;45.190;5.732;2023-09-19T02:25:18;99230.59;;;18.40;100.00
15670;BME280;18524;45.190;5.732;2023-09-19T02:30:10;99235.91;;;18.40;100.00
15670;BME280;18524;45.190;5.732;2023-09-19T02:35:01;99241.38;;;18.39;100.00
15670;BME280;18524;45.190;5.732;2023-09-19T02:39:51;99240.88;;;18.43;100.00
15670;BME280;18524;45.190;5.732;2023-09-19T02:44:41;99246.03;;;18.37;100.00
15670;BME280;18524;45.190;5.732;2023-09-19T02:49:32;99244.50;;;18.42;100.00
15670;BME280;18524;45.190;5.732;2023-09-19T02:54:23;99239.69;;;18.46;100.00
15670;BME280;18524;45.190;5.732;2023-09-19T02:59:13;99243.50;;;18.43;100.00
15670;BME280;18524;45.190;5.732;2023-09-19T03:04:05;99233.34;;;18.55;100.00
15670;BME280;18524;45.190;5.732;2023-09-19T03:08:58;99231.41;;;18.41;100.00
15670;BME280;18524;45.190;5.732;2023-09-19T03:13:54;99223.00;;;18.29;100.00
15670;BME280;18524;45.190;5.732;2023-09-19T03:18:44;99226.66;;;18.28;100.00
15670;BME280;18524;45.190;5.732;2023-09-19T03:23:35;99236.94;;;18.31;100.00
15670;BME280;18524;45.190;5.732;2023-09-19T03:28:26;99232.28;;;18.33;100.00
15670;BME280;18524;45.190;5.732;2023-09-19T03:33:16;99237.91;;;18.38;100.00
15670;BME280;18524;45.190;5.732;2023-09-19T03:38:07;99241.22;;;18.40;100.00
15670;BME280;18524;45.190;5.732;2023-09-19T03:43:00;99235.41;;;18.37;100.00
15670;BME280;18524;45.190;5.732;2023-09-19T03:47:50;99243.88;;;18.40;100.00
15670;BME280;18524;45.190;5.732;2023-09-19T03:52:41;99246.88;;;18.37;100.00
15670;BME280;18524;45.190;5.732;2023-09-19T03:57:32;99252.16;;;18.37;100.00
15670;BME280;18524;45.190;5.732;2023-09-19T04:02:23;99242.56;;;18.36;100.00
15670;BME280;18524;45.190;5.732;2023-09-19T04:07:14;99252.34;;;18.36;100.00
15670;BME280;18524;45.190;5.732;2023-09-19T04:12:05;99251.69;;;18.34;100.00
15670;BME280;18524;45.190;5.732;2023-09-19T04:16:55;99257.00;;;18.34;100.00
15670;BME280;18524;45.190;5.732;2023-09-19T04:21:46;99256.66;;;18.37;100.00
15670;BME280;18524;45.190;5.732;2023-09-19T04:26:36;99258.78;;;18.41;100.00
15670;BME280;18524;45.190;5.732;2023-09-19T04:31:26;99253.63;;;18.48;100.00
15670;BME280;18524;45.190;5.732;2023-09-19T04:36:17;99255.94;;;18.51;100.00
15670;BME280;18524;45.190;5.732;2023-09-19T04:41:07;99257.41;;;18.54;100.00
15670;BME280;18524;45.190;5.732;2023-09-19T04:45:58;99263.06;;;18.59;100.00
15670;BME280;18524;45.190;5.732;2023-09-19T04:50:50;99274.88;;;18.64;100.00
15670;BME280;18524;45.190;5.732;2023-09-19T04:55:41;99271.88;;;18.59;100.00
15670;BME280;18524;45.190;5.732;2023-09-19T05:00:31;99272.84;;;18.58;100.00
15670;BME280;18524;45.190;5.732;2023-09-19T05:05:25;99283.00;;;18.63;100.00
15670;BME280;18524;45.190;5.732;2023-09-19T05:10:16;99286.94;;;18.75;100.00
15670;BME280;18524;45.190;5.732;2023-09-19T05:15:08;99292.25;;;18.75;100.00
15670;BME280;18524;45.190;5.732;2023-09-19T05:19:59;99295.59;;;18.61;100.00
15670;BME280;18524;45.190;5.732;2023-09-19T05:24:55;99300.91;;;18.53;100.00
15670;BME280;18524;45.190;5.732;2023-09-19T05:29:46;99311.19;;;18.56;100.00
15670;BME280;18524;45.190;5.732;2023-09-19T05:34:38;99314.22;;;18.44;100.00
15670;BME280;18524;45.190;5.732;2023-09-19T05:39:29;99322.53;;;18.41;100.00
15670;BME280;18524;45.190;5.732;2023-09-19T05:44:19;99314.88;;;18.47;100.00
15670;BME280;18524;45.190;5.732;2023-09-19T05:49:09;99320.34;;;18.53;100.00
15670;BME280;18524;45.190;5.732;2023-09-19T05:54:00;99323.16;;;18.68;100.00
15670;BME280;18524;45.190;5.732;2023-09-19T05:58:50;99335.94;;;18.72;100.00
15670;BME280;18524;45.190;5.732;2023-09-19T06:03:43;99341.41;;;18.79;100.00
15670;BME280;18524;45.190;5.732;2023-09-19T06:08:33;99341.06;;;18.82;100.00
15670;BME280;18524;45.190;5.732;2023-09-19T06:13:24;99349.50;;;18.86;100.00
15670;BME280;18524;45.190;5.732;2023-09-19T06:18:16;99360.44;;;18.91;100.00
15670;BME280;18524;45.190;5.732;2023-09-19T06:23:10;99358.78;;;18.98;100.00
15670;BME280;18524;45.190;5.732;2023-09-19T06:28:00;99358.97;;;18.96;100.00
15670;BME280;18524;45.190;5.732;2023-09-19T06:32:59;99357.44;;;18.94;100.00
15670;BME280;18524;45.190;5.732;2023-09-19T06:37:50;99368.91;;;19.02;100.00
15670;BME280;18524;45.190;5.732;2023-09-19T06:42:42;99369.50;;;19.13;100.00
15670;BME280;18524;45.190;5.732;2023-09-19T06:47:34;99369.16;;;19.16;100.00
15670;BME280;18524;45.190;5.732;2023-09-19T06:52:24;99372.00;;;19.14;100.00
15670;BME280;18524;45.190;5.732;2023-09-19T06:57:18;99380.84;;;19.07;100.00
15670;BME280;18524;45.190;5.732;2023-09-19T07:02:08;99377.34;;;19.06;100.00
15670;BME280;18524;45.190;5.732;2023-09-19T07:06:58;99374.09;;;18.96;100.00
15670;BME280;18524;45.190;5.732;2023-09-19T07:11:49;99374.53;;;19.08;100.00
15670;BME280;18524;45.190;5.732;2023-09-19T07:16:41;99375.88;;;19.03;100.00
15670;BME280;18524;45.190;5.732;2023-09-19T07:21:34;99374.22;;;19.02;100.00
15670;BME280;18524;45.190;5.732;2023-09-19T07:26:25;99385.81;;;19.10;100.00
15670;BME280;18524;45.190;5.732;2023-09-19T07:31:16;99386.53;;;18.87;100.00
15670;BME280;18524;45.190;5.732;2023-09-19T07:36:09;99379.41;;;18.96;100.00
15670;BME280;18524;45.190;5.732;2023-09-19T07:41:01;99387.81;;;19.08;100.00
15670;BME280;18524;45.190;5.732;2023-09-19T07:45:52;99391.41;;;19.23;100.00
15670;BME280;18524;45.190;5.732;2023-09-19T07:50:43;99398.84;;;19.27;100.00
15670;BME280;18524;45.190;5.732;2023-09-19T07:55:34;99387.81;;;19.47;100.00
15670;BME280;18524;45.190;5.732;2023-09-19T08:00:24;99383.53;;;19.68;100.00
15670;BME280;18524;45.190;5.732;2023-09-19T08:05:15;99392.44;;;19.84;100.00
15670;BME280;18524;45.190;5.732;2023-09-19T08:10:07;99389.13;;;20.05;100.00
15670;BME280;18524;45.190;5.732;2023-09-19T08:15:03;99385.97;;;20.24;100.00
15670;BME280;18524;45.190;5.732;2023-09-19T08:19:54;99387.38;;;20.72;100.00
15670;BME280;18524;45.190;5.732;2023-09-19T08:24:44;99386.97;;;21.64;100.00
15670;BME280;18524;45.190;5.732;2023-09-19T08:29:34;99369.81;;;22.37;100.00
15670;BME280;18524;45.190;5.732;2023-09-19T08:34:25;99379.66;;;22.64;100.00
15670;BME280;18524;45.190;5.732;2023-09-19T08:39:16;99386.75;;;22.23;100.00
15670;BME280;18524;45.190;5.732;2023-09-19T08:44:07;99392.38;;;21.92;100.00
15670;BME280;18524;45.190;5.732;2023-09-19T08:49:04;99389.78;;;21.77;100.00
15670;BME280;18524;45.190;5.732;2023-09-19T08:54:07;99381.00;;;21.62;100.00
15670;BME280;18524;45.190;5.732;2023-09-19T08:59:02;99380.81;;;21.84;100.00
15670;BME280;18524;45.190;5.732;2023-09-19T09:03:54;99372.00;;;22.55;100.00
15670;BME280;18524;45.190;5.732;2023-09-19T09:08:46;99364.22;;;23.29;100.00
15670;BME280;18524;45.190;5.732;2023-09-19T09:13:37;99366.38;;;23.53;100.00
15670;BME280;18524;45.190;5.732;2023-09-19T09:18:28;99377.56;;;23.77;100.00
15670;BME280;18524;45.190;5.732;2023-09-19T09:23:20;99373.28;;;23.82;100.00
15670;BME280;18524;45.190;5.732;2023-09-19T09:28:11;99371.06;;;24.19;100.00
15670;BME280;18524;45.190;5.732;2023-09-19T09:33:11;99364.03;;;24.57;100.00
15670;BME280;18524;45.190;5.732;2023-09-19T09:38:02;99363.44;;;25.27;94.90
15670;BME280;18524;45.190;5.732;2023-09-19T09:42:58;99357.91;;;25.21;90.23
15670;BME280;18524;45.190;5.732;2023-09-19T09:47:50;99363.13;;;25.10;93.55
15670;BME280;18524;45.190;5.732;2023-09-19T09:52:50;99357.44;;;25.38;90.12
15670;BME280;18524;45.190;5.732;2023-09-19T09:57:40;99354.13;;;25.80;86.24
15670;BME280;18524;45.190;5.732;2023-09-19T10:02:35;99344.84;;;26.08;86.12
15670;BME280;18524;45.190;5.732;2023-09-19T10:07:31;99350.66;;;26.05;83.77
15670;BME280;18524;45.190;5.732;2023-09-19T10:12:43;99348.41;;;26.02;86.83
15670;BME280;18524;45.190;5.732;2023-09-19T10:17:35;99343.56;;;26.10;83.45
15670;BME280;18524;45.190;5.732;2023-09-19T10:22:26;99342.66;;;25.67;87.65
15670;BME280;18524;45.190;5.732;2023-09-19T10:27:21;99335.22;;;26.18;81.31
15670;BME280;18524;45.190;5.732;2023-09-19T10:32:14;99327.41;;;26.60;78.77
15670;BME280;18524;45.190;5.732;2023-09-19T10:37:12;99313.34;;;27.31;73.53
15670;BME280;18524;45.190;5.732;2023-09-19T10:42:03;99307.13;;;27.91;71.47
15670;BME280;18524;45.190;5.732;2023-09-19T10:46:56;99304.09;;;27.99;65.67
15670;BME280;18524;45.190;5.732;2023-09-19T10:51:49;99297.75;;;28.05;69.06
15670;BME280;18524;45.190;5.732;2023-09-19T10:56:47;99290.84;;;28.56;66.61
15670;BME280;18524;45.190;5.732;2023-09-19T11:01:46;99293.38;;;28.98;66.71
15670;BME280;18524;45.190;5.732;2023-09-19T11:07:08;99282.59;;;29.26;62.86
15670;BME280;18524;45.190;5.732;2023-09-19T11:12:01;99279.75;;;29.44;58.88
15670;BME280;18524;45.190;5.732;2023-09-19T11:21:55;99277.41;;;30.32;55.25
15670;BME280;18524;45.190;5.732;2023-09-19T11:26:46;99274.38;;;29.95;57.41
15670;BME280;18524;45.190;5.732;2023-09-19T11:31:43;99270.84;;;29.94;56.66
15670;BME280;18524;45.190;5.732;2023-09-19T11:36:37;99273.00;;;29.75;56.74
15670;BME280;18524;45.190;5.732;2023-09-19T11:41:41;99273.44;;;29.72;59.49
15670;BME280;18524;45.190;5.732;2023-09-19T11:46:33;99258.03;;;30.40;58.38
15670;BME280;18524;45.190;5.732;2023-09-19T11:51:25;99258.56;;;30.80;57.27
15670;BME280;18524;45.190;5.732;2023-09-19T11:56:23;99253.88;;;30.71;55.07
15670;BME280;18524;45.190;5.732;2023-09-19T12:01:23;99247.44;;;30.99;56.28
15670;BME280;18524;45.190;5.732;2023-09-19T12:06:15;99233.41;;;31.07;50.94
15670;BME280;18524;45.190;5.732;2023-09-19T12:11:06;99230.41;;;31.25;53.74
15670;BME280;18524;45.190;5.732;2023-09-19T12:16:00;99225.41;;;30.90;50.26
15670;BME280;18524;45.190;5.732;2023-09-19T12:20:51;99211.00;;;30.46;58.78
15670;BME280;18524;45.190;5.732;2023-09-19T12:25:43;99211.13;;;30.34;53.04
15670;BME280;18524;45.190;5.732;2023-09-19T12:30:43;99219.06;;;30.02;54.59
15670;BME280;18524;45.190;5.732;2023-09-19T12:35:34;99211.69;;;30.14;56.39
15670;BME280;18524;45.190;5.732;2023-09-19T12:40:25;99209.56;;;29.21;54.56
15670;BME280;18524;45.190;5.732;2023-09-19T12:45:18;99206.94;;;29.26;56.67
15670;BME280;18524;45.190;5.732;2023-09-19T12:50:14;99206.78;;;29.33;56.76
15670;BME280;18524;45.190;5.732;2023-09-19T12:55:19;99189.28;;;28.78;56.54
15670;BME280;18524;45.190;5.732;2023-09-19T13:00:10;99192.63;;;28.57;57.10
15670;BME280;18524;45.190;5.732;2023-09-19T13:05:03;99182.66;;;28.57;59.26
15670;BME280;18524;45.190;5.732;2023-09-19T13:10:03;99177.91;;;28.13;57.66
15670;BME280;18524;45.190;5.732;2023-09-19T13:15:09;99179.78;;;27.54;60.02
15670;BME280;18524;45.190;5.732;2023-09-19T13:20:26;99168.38;;;27.28;62.29
15670;BME280;18524;45.190;5.732;2023-09-19T13:25:22;99154.69;;;27.41;63.85
15670;BME280;18524;45.190;5.732;2023-09-19T13:30:12;99153.84;;;27.29;61.59
15670;BME280;18524;45.190;5.732;2023-09-19T13:35:04;99148.09;;;26.96;62.16
15670;BME280;18524;45.190;5.732;2023-09-19T13:39:55;99139.38;;;27.00;64.46
15670;BME280;18524;45.190;5.732;2023-09-19T13:44:45;99144.19;;;27.10;65.21
15670;BME280;18524;45.190;5.732;2023-09-19T13:49:36;99138.72;;;27.17;66.02
15670;BME280;18524;45.190;5.732;2023-09-19T13:54:27;99151.13;;;27.18;64.97
15670;BME280;18524;45.190;5.732;2023-09-19T13:59:17;99122.22;;;27.25;62.26
15670;BME280;18524;45.190;5.732;2023-09-19T14:04:07;99126.78;;;27.24;64.34
15670;BME280;18524;45.190;5.732;2023-09-19T14:09:00;99124.69;;;27.15;65.87
15670;BME280;18524;45.190;5.732;2023-09-19T14:13:51;99115.16;;;27.12;63.54
15670;BME280;18524;45.190;5.732;2023-09-19T14:18:42;99103.34;;;27.13;65.34
15670;BME280;18524;45.190;5.732;2023-09-19T14:23:36;99117.00;;;27.00;61.36
15670;BME280;18524;45.190;5.732;2023-09-19T14:28:27;99116.38;;;26.86;64.16
15670;BME280;18524;45.190;5.732;2023-09-19T14:33:17;99110.22;;;26.67;66.61
15670;BME280;18524;45.190;5.732;2023-09-19T14:38:07;99107.97;;;26.64;66.06
15670;BME280;18524;45.190;5.732;2023-09-19T14:42:58;99111.72;;;26.63;67.08
15670;BME280;18524;45.190;5.732;2023-09-19T14:47:50;99105.97;;;26.60;66.02
15670;BME280;18524;45.190;5.732;2023-09-19T14:52:42;99099.59;;;26.42;64.70
15670;BME280;18524;45.190;5.732;2023-09-19T14:57:34;99104.38;;;26.40;65.66
15670;BME280;18524;45.190;5.732;2023-09-19T15:02:24;99092.19;;;26.38;65.70
15670;BME280;18524;45.190;5.732;2023-09-19T15:07:15;99097.38;;;26.33;61.94
15670;BME280;18524;45.190;5.732;2023-09-19T15:12:06;99089.88;;;26.23;66.18
15670;BME280;18524;45.190;5.732;2023-09-19T15:16:56;99097.19;;;26.16;65.11
15670;BME280;18524;45.190;5.732;2023-09-19T15:21:46;99087.50;;;26.15;65.14
15670;BME280;18524;45.190;5.732;2023-09-19T15:26:38;99085.13;;;26.07;65.17
15670;BME280;18524;45.190;5.732;2023-09-19T15:31:29;99084.13;;;26.01;63.85
15670;BME280;18524;45.190;5.732;2023-09-19T15:36:19;99085.41;;;25.99;63.41
15670;BME280;18524;45.190;5.732;2023-09-19T15:41:12;99085.09;;;25.89;62.66
15670;BME280;18524;45.190;5.732;2023-09-19T15:46:03;99087.56;;;25.72;63.23
15670;BME280;18524;45.190;5.732;2023-09-19T15:50:54;99086.38;;;25.68;62.37
15670;BME280;18524;45.190;5.732;2023-09-19T15:55:45;99088.31;;;25.54;63.51
15670;BME280;18524;45.190;5.732;2023-09-19T16:00:39;99089.97;;;25.55;63.25
15670;BME280;18524;45.190;5.732;2023-09-19T16:05:37;99086.22;;;25.38;64.01
15670;BME280;18524;45.190;5.732;2023-09-19T16:10:29;99089.19;;;25.30;64.24
15670;BME280;18524;45.190;5.732;2023-09-19T16:15:19;99083.69;;;25.18;64.11
15670;BME280;18524;45.190;5.732;2023-09-19T16:20:11;99079.59;;;25.15;64.93
15670;BME280;18524;45.190;5.732;2023-09-19T16:25:02;99079.25;;;25.05;64.76
15670;BME280;18524;45.190;5.732;2023-09-19T16:29:53;99083.00;;;24.98;65.81
15670;BME280;18524;45.190;5.732;2023-09-19T16:34:44;99078.31;;;24.86;67.26
15670;BME280;18524;45.190;5.732;2023-09-19T16:39:34;99077.59;;;24.73;68.52
15670;BME280;18524;45.190;5.732;2023-09-19T16:44:25;99082.78;;;24.68;69.26
15670;BME280;18524;45.190;5.732;2023-09-19T16:49:15;99085.31;;;24.62;69.00
15670;BME280;18524;45.190;5.732;2023-09-19T16:54:06;99089.03;;;24.61;69.50
15670;BME280;18524;45.190;5.732;2023-09-19T16:58:56;99091.53;;;24.50;70.78
15670;BME280;18524;45.190;5.732;2023-09-19T17:03:48;99092.78;;;24.47;71.01
15670;BME280;18524;45.190;5.732;2023-09-19T17:08:39;99101.94;;;24.33;70.90
15670;BME280;18524;45.190;5.732;2023-09-19T17:13:30;99102.16;;;24.25;71.97
15670;BME280;18524;45.190;5.732;2023-09-19T17:18:20;99098.06;;;24.16;72.34
15670;BME280;18524;45.190;5.732;2023-09-19T17:23:11;99093.56;;;24.10;76.82
15670;BME280;18524;45.190;5.732;2023-09-19T17:28:02;99092.97;;;24.01;75.25
15670;BME280;18524;45.190;5.732;2023-09-19T17:32:53;99102.69;;;23.95;76.57
15670;BME280;18524;45.190;5.732;2023-09-19T17:37:46;99108.47;;;23.92;75.95
15670;BME280;18524;45.190;5.732;2023-09-19T17:42:37;99109.72;;;23.83;74.66
15670;BME280;18524;45.190;5.732;2023-09-19T17:47:28;99103.53;;;23.76;75.30
15670;BME280;18524;45.190;5.732;2023-09-19T17:52:18;99111.19;;;23.66;76.40
15670;BME280;18524;45.190;5.732;2023-09-19T17:57:08;99111.38;;;23.71;75.75
15670;BME280;18524;45.190;5.732;2023-09-19T18:01:59;99118.00;;;23.55;78.23
15670;BME280;18524;45.190;5.732;2023-09-19T18:06:49;99115.31;;;23.42;79.88
15670;BME280;18524;45.190;5.732;2023-09-19T18:11:40;99106.84;;;23.38;85.50
15670;BME280;18524;45.190;5.732;2023-09-19T18:16:32;99110.78;;;23.29;87.57
15670;BME280;18524;45.190;5.732;2023-09-19T18:21:22;99114.47;;;23.22;88.60
15670;BME280;18524;45.190;5.732;2023-09-19T18:26:13;99119.00;;;23.15;88.86
15670;BME280;18524;45.190;5.732;2023-09-19T18:31:07;99119.44;;;23.05;90.85
15670;BME280;18524;45.190;5.732;2023-09-19T18:36:06;99130.28;;;22.97;94.32
15670;BME280;18524;45.190;5.732;2023-09-19T18:40:59;99123.50;;;22.88;91.75
15670;BME280;18524;45.190;5.732;2023-09-19T18:45:56;99131.47;;;22.74;93.53
15670;BME280;18524;45.190;5.732;2023-09-19T18:50:48;99140.94;;;22.70;93.52
15670;BME280;18524;45.190;5.732;2023-09-19T18:55:39;99147.47;;;22.61;96.09
15670;BME280;18524;45.190;5.732;2023-09-19T19:00:29;99156.50;;;22.60;96.35
15670;BME280;18524;45.190;5.732;2023-09-19T19:05:19;99156.47;;;22.54;96.86
15670;BME280;18524;45.190;5.732;2023-09-19T19:10:11;99163.03;;;22.44;96.16
15670;BME280;18524;45.190;5.732;2023-09-19T19:15:04;99161.75;;;22.34;98.27
15670;BME280;18524;45.190;5.732;2023-09-19T19:19:54;99166.69;;;22.30;100.00
15670;BME280;18524;45.190;5.732;2023-09-19T19:24:45;99171.97;;;22.24;100.00
15670;BME280;18524;45.190;5.732;2023-09-19T19:29:35;99179.31;;;22.15;100.00
15670;BME280;18524;45.190;5.732;2023-09-19T19:34:26;99186.09;;;22.11;100.00
15670;BME280;18524;45.190;5.732;2023-09-19T19:39:17;99189.53;;;22.05;100.00
15670;BME280;18524;45.190;5.732;2023-09-19T19:44:07;99184.63;;;22.08;100.00
15670;BME280;18524;45.190;5.732;2023-09-19T19:48:58;99184.13;;;21.98;100.00
15670;BME280;18524;45.190;5.732;2023-09-19T19:53:49;99174.59;;;21.89;100.00
15670;BME280;18524;45.190;5.732;2023-09-19T19:58:40;99169.47;;;21.88;100.00
15670;BME280;18524;45.190;5.732;2023-09-19T20:03:33;99179.91;;;21.82;100.00
15670;BME280;18524;45.190;5.732;2023-09-19T20:08:26;99176.19;;;21.77;100.00
15670;BME280;18524;45.190;5.732;2023-09-19T20:13:17;99181.91;;;21.74;100.00
15670;BME280;18524;45.190;5.732;2023-09-19T20:18:09;99185.97;;;21.70;100.00
15670;BME280;18524;45.190;5.732;2023-09-19T20:23:02;99191.72;;;21.67;100.00
15670;BME280;18524;45.190;5.732;2023-09-19T20:27:54;99204.63;;;21.63;100.00
15670;BME280;18524;45.190;5.732;2023-09-19T20:32:47;99201.25;;;21.54;100.00
15670;BME280;18524;45.190;5.732;2023-09-19T20:37:37;99202.25;;;21.53;100.00
15670;BME280;18524;45.190;5.732;2023-09-19T20:42:28;99200.81;;;21.51;100.00
15670;BME280;18524;45.190;5.732;2023-09-19T20:47:18;99193.56;;;21.45;100.00
15670;BME280;18524;45.190;5.732;2023-09-19T20:52:09;99172.63;;;21.42;100.00
15670;BME280;18524;45.190;5.732;2023-09-19T20:56:59;99172.56;;;21.35;100.00
15670;BME280;18524;45.190;5.732;2023-09-19T21:01:50;99182.41;;;21.35;100.00
15670;BME280;18524;45.190;5.732;2023-09-19T21:06:41;99184.44;;;21.33;100.00
15670;BME280;18524;45.190;5.732;2023-09-19T21:11:31;99178.22;;;21.26;100.00
15670;BME280;18524;45.190;5.732;2023-09-19T21:16:22;99183.38;;;21.12;100.00
15670;BME280;18524;45.190;5.732;2023-09-19T21:21:12;99184.91;;;21.00;100.00
15670;BME280;18524;45.190;5.732;2023-09-19T21:26:03;99185.22;;;20.90;100.00
15670;BME280;18524;45.190;5.732;2023-09-19T21:31:01;99173.28;;;20.86;100.00
15670;BME280;18524;45.190;5.732;2023-09-19T21:35:54;99175.13;;;20.86;100.00
15670;BME280;18524;45.190;5.732;2023-09-19T21:40:44;99165.88;;;20.82;100.00
15670;BME280;18524;45.190;5.732;2023-09-19T21:45:34;99175.13;;;20.86;100.00
15670;BME280;18524;45.190;5.732;2023-09-19T21:50:25;99173.38;;;20.78;100.00
15670;BME280;18524;45.190;5.732;2023-09-19T21:55:17;99177.69;;;20.79;100.00
15670;BME280;18524;45.190;5.732;2023-09-19T22:00:08;99176.44;;;20.75;100.00
15670;BME280;18524;45.190;5.732;2023-09-19T22:05:13;99187.22;;;20.67;100.00
15670;BME280;18524;45.190;5.732;2023-09-19T22:10:04;99190.34;;;20.56;100.00
15670;BME280;18524;45.190;5.732;2023-09-19T22:14:55;99186.88;;;20.55;100.00
15670;BME280;18524;45.190;5.732;2023-09-19T22:19:45;99188.81;;;20.47;100.00
15670;BME280;18524;45.190;5.732;2023-09-19T22:24:35;99180.53;;;20.42;100.00
15670;BME280;18524;45.190;5.732;2023-09-19T22:29:26;99181.81;;;20.31;100.00
15670;BME280;18524;45.190;5.732;2023-09-19T22:34:19;99179.88;;;20.25;100.00
15670;BME280;18524;45.190;5.732;2023-09-19T22:39:10;99184.09;;;20.05;100.00
15670;BME280;18524;45.190;5.732;2023-09-19T22:44:10;99187.41;;;20.07;100.00
15670;BME280;18524;45.190;5.732;2023-09-19T22:49:01;99198.31;;;19.97;100.00
15670;BME280;18524;45.190;5.732;2023-09-19T22:53:51;99184.28;;;19.74;100.00
15670;BME280;18524;45.190;5.732;2023-09-19T23:10:21;99175.59;;;19.57;100.00
15670;BME280;18524;45.190;5.732;2023-09-19T23:15:11;99174.41;;;19.59;100.00
15670;BME280;18524;45.190;5.732;2023-09-19T23:20:07;99170.38;;;19.63;100.00
15670;BME280;18524;45.190;5.732;2023-09-19T23:24:59;99172.94;;;19.57;100.00
15670;BME280;18524;45.190;5.732;2023-09-19T23:30:16;99167.66;;;19.49;100.00
15670;BME280;18524;45.190;5.732;2023-09-19T23:35:13;99170.69;;;19.46;100.00
15670;BME280;18524;45.190;5.732;2023-09-19T23:40:05;99176.06;;;19.38;100.00
15670;BME280;18524;45.190;5.732;2023-09-19T23:44:59;99161.50;;;19.33;100.00
15670;BME280;18524;45.190;5.732;2023-09-19T23:49:50;99170.44;;;19.32;100.00
15670;BME280;18524;45.190;5.732;2023-09-19T23:54:43;99167.31;;;19.29;100.00
15670;BME280;18524;45.190;5.732;2023-09-19T23:59:34;99166.56;;;19.20;100.00
